createdAt,value
2022-11-05T00:01:51.080Z,109.07
2022-11-05T00:04:39.135Z,103.67
2022-11-05T00:07:29.262Z,101.00
2022-11-05T00:10:01.219Z,95.47
2022-11-05T00:12:46.783Z,98.60
2022-11-05T00:15:32.427Z,100.10
2022-11-05T00:18:00.480Z,100.27
2022-11-05T00:20:29.847Z,101.53
2022-11-05T00:23:22.598Z,102.37
2022-11-05T00:25:58.090Z,99.37
2022-11-05T00:28:26.136Z,98.57
2022-11-05T00:30:54.392Z,101.43
2022-11-05T00:33:22.446Z,100.73
2022-11-05T00:35:51.855Z,101.03
2022-11-05T00:38:19.965Z,99.93
2022-11-05T00:40:48.018Z,98.57
2022-11-05T00:43:33.859Z,101.03
2022-11-05T00:46:01.942Z,99.37
2022-11-05T00:48:47.749Z,97.43
2022-11-05T00:51:17.489Z,98.70
2022-11-05T00:53:45.575Z,100.80
2022-11-05T00:56:13.844Z,101.27
2022-11-05T00:58:41.878Z,100.27
2022-11-05T01:01:11.627Z,99.63
2022-11-05T01:03:41.062Z,101.10
2022-11-05T01:06:12.758Z,101.37
2022-11-05T01:08:43.468Z,99.87
2022-11-05T01:11:33.039Z,100.63
2022-11-05T01:14:02.005Z,103.80
2022-11-05T01:16:30.493Z,102.43
2022-11-05T01:18:58.548Z,105.10
2022-11-05T01:21:26.556Z,106.87
2022-11-05T01:23:56.011Z,105.83
2022-11-05T01:26:25.143Z,104.50
2022-11-05T01:28:53.633Z,105.63
2022-11-05T01:31:22.195Z,106.90
2022-11-05T01:33:50.520Z,104.90
2022-11-05T01:36:19.227Z,106.03
2022-11-05T01:38:47.267Z,106.17
2022-11-05T01:41:16.709Z,103.93
2022-11-05T01:43:49.779Z,106.90
2022-11-05T01:46:20.942Z,106.20
2022-11-05T01:48:55.191Z,103.43
2022-11-05T01:51:28.333Z,106.07
2022-11-05T01:54:01.635Z,109.67
2022-11-05T01:56:36.070Z,106.13
2022-11-05T01:59:07.683Z,105.70
2022-11-05T02:01:36.087Z,106.10
2022-11-05T02:04:06.442Z,106.50
2022-11-05T02:06:38.056Z,107.23
2022-11-05T02:09:11.538Z,109.07
2022-11-05T02:11:40.907Z,108.83
2022-11-05T02:14:08.957Z,108.10
2022-11-05T02:16:42.355Z,110.63
2022-11-05T02:19:44.820Z,109.87
2022-11-05T02:22:34.344Z,108.00
2022-11-05T02:25:20.373Z,110.70
2022-11-05T02:28:17.044Z,109.70
2022-11-05T02:30:54.003Z,111.57
2022-11-05T02:33:32.214Z,112.57
2022-11-05T02:36:21.570Z,111.83
2022-11-05T02:38:59.523Z,109.67
2022-11-05T02:41:35.037Z,108.93
2022-11-05T02:44:22.302Z,111.30
2022-11-05T02:46:58.215Z,110.10
2022-11-05T02:49:40.177Z,105.93
2022-11-05T02:52:30.358Z,108.33
2022-11-05T02:55:00.663Z,107.00
2022-11-05T02:57:30.805Z,110.23
2022-11-05T03:00:02.550Z,108.90
2022-11-05T03:02:32.362Z,108.43
2022-11-05T03:05:01.228Z,106.30
2022-11-05T03:07:41.771Z,106.00
2022-11-05T03:10:28.466Z,107.37
2022-11-05T03:13:07.203Z,106.87
2022-11-05T03:15:49.633Z,107.90
2022-11-05T03:18:26.205Z,107.67
2022-11-05T03:21:01.937Z,108.63
2022-11-05T03:23:37.179Z,109.60
2022-11-05T03:26:09.124Z,108.53
2022-11-05T03:28:40.870Z,106.77
2022-11-05T03:31:12.479Z,109.27
2022-11-05T03:33:44.303Z,112.40
2022-11-05T03:36:18.410Z,110.23
2022-11-05T03:38:50.424Z,107.23
2022-11-05T03:41:21.032Z,105.43
2022-11-05T03:43:52.590Z,108.60
2022-11-05T03:46:28.206Z,108.30
2022-11-05T03:49:00.283Z,108.40
2022-11-05T03:51:37.790Z,111.37
2022-11-05T03:54:06.672Z,112.90
2022-11-05T03:56:40.125Z,112.80
2022-11-05T03:59:10.003Z,112.13
2022-11-05T04:01:38.726Z,110.57
2022-11-05T04:04:09.814Z,112.40
2022-11-05T04:06:55.223Z,108.90
2022-11-05T04:09:40.891Z,108.70
2022-11-05T04:12:28.216Z,109.10
2022-11-05T04:14:57.373Z,112.10
2022-11-05T04:17:24.593Z,109.17
2022-11-05T04:20:11.517Z,108.67
2022-11-05T04:22:56.884Z,108.10
2022-11-05T04:25:24.909Z,105.50
2022-11-05T04:27:53.238Z,107.87
2022-11-05T04:30:21.512Z,107.87
2022-11-05T04:33:04.580Z,108.80
2022-11-05T04:35:36.211Z,111.47
2022-11-05T04:38:05.674Z,108.23
2022-11-05T04:40:34.128Z,107.00
2022-11-05T04:43:02.611Z,110.03
2022-11-05T04:45:33.053Z,109.83
2022-11-05T04:48:01.169Z,108.87
2022-11-05T04:50:29.517Z,108.20
2022-11-05T04:52:59.126Z,111.37
2022-11-05T04:55:27.497Z,113.70
2022-11-05T04:57:56.037Z,114.43
2022-11-05T05:00:25.172Z,109.07
2022-11-05T05:02:53.288Z,110.90
2022-11-05T05:05:22.569Z,109.20
2022-11-05T05:07:50.639Z,104.93
2022-11-05T05:10:20.258Z,108.97
2022-11-05T05:12:48.540Z,108.60
2022-11-05T05:15:16.650Z,105.60
2022-11-05T05:17:44.753Z,108.00
2022-11-05T05:20:30.101Z,109.63
2022-11-05T05:22:58.198Z,105.93
2022-11-05T05:25:27.653Z,107.20
2022-11-05T05:27:57.941Z,103.77
2022-11-05T05:30:26.273Z,107.77
2022-11-05T05:32:54.373Z,104.00
2022-11-05T05:35:22.454Z,99.47
2022-11-05T05:37:50.493Z,101.43
2022-11-05T05:40:18.783Z,99.57
2022-11-05T05:42:48.804Z,102.37
2022-11-05T05:45:17.058Z,100.17
2022-11-05T05:47:45.151Z,98.83
2022-11-05T05:50:13.275Z,98.27
2022-11-05T05:52:41.603Z,100.10
2022-11-05T05:55:12.614Z,97.60
2022-11-05T05:57:40.940Z,97.03
2022-11-05T06:00:12.079Z,96.83
2022-11-05T06:02:40.772Z,95.07
2022-11-05T06:05:09.425Z,94.30
2022-11-05T06:07:37.836Z,93.80
2022-11-05T06:10:07.044Z,96.57
2022-11-05T06:12:35.105Z,98.07
2022-11-05T06:15:04.195Z,97.00
2022-11-05T06:17:34.273Z,93.93
2022-11-05T06:20:02.320Z,93.83
2022-11-05T06:22:30.586Z,95.93
2022-11-05T06:24:58.693Z,94.37
2022-11-05T06:27:26.815Z,106.37
2022-11-05T06:29:55.491Z,104.80
2022-11-05T06:32:23.587Z,103.73
2022-11-05T06:34:52.956Z,103.00
2022-11-05T06:37:21.035Z,102.07
2022-11-05T06:39:49.113Z,105.97
2022-11-05T06:42:18.992Z,105.83
2022-11-05T06:44:47.700Z,108.38
2022-11-05T06:47:15.901Z,103.53
2022-11-05T06:49:44.265Z,104.63
2022-11-05T06:52:15.404Z,103.80
2022-11-05T06:54:44.467Z,107.07
2022-11-05T06:57:13.612Z,106.07
2022-11-05T06:59:42.038Z,101.30
2022-11-05T07:02:13.946Z,104.10
2022-11-05T07:04:42.135Z,106.20
2022-11-05T07:07:10.495Z,106.63
2022-11-05T07:09:43.063Z,104.80
2022-11-05T07:12:11.347Z,105.63
2022-11-05T07:14:39.433Z,100.13
2022-11-05T07:17:07.526Z,99.67
2022-11-05T07:19:35.546Z,99.13
2022-11-05T07:22:03.632Z,105.37
2022-11-05T07:24:31.719Z,102.17
2022-11-05T07:27:01.201Z,99.33
2022-11-05T07:29:29.299Z,101.97
2022-11-05T07:31:57.370Z,100.73
2022-11-05T07:34:25.485Z,100.80
2022-11-05T07:36:53.508Z,100.83
2022-11-05T07:39:21.902Z,101.83
2022-11-05T07:41:49.984Z,104.70
2022-11-05T07:44:19.405Z,105.63
2022-11-05T07:46:47.394Z,107.77
2022-11-05T07:49:15.413Z,107.50
2022-11-05T07:51:43.611Z,108.23
2022-11-05T07:54:11.734Z,110.23
2022-11-05T07:56:39.824Z,108.13
2022-11-05T07:59:08.002Z,110.20
2022-11-05T08:01:37.646Z,111.23
2022-11-05T08:04:06.031Z,112.03
2022-11-05T08:06:34.058Z,112.03
2022-11-05T08:09:02.233Z,113.60
2022-11-05T08:11:30.319Z,114.07
2022-11-05T08:13:58.405Z,114.87
2022-11-05T08:16:26.466Z,117.03
2022-11-05T08:18:55.881Z,115.23
2022-11-05T08:21:23.928Z,113.07
2022-11-05T08:23:52.011Z,112.50
2022-11-05T08:26:20.650Z,110.93
2022-11-05T08:28:48.651Z,110.17
2022-11-05T08:31:18.135Z,110.97
2022-11-05T08:33:46.434Z,110.83
2022-11-05T08:36:15.940Z,107.63
2022-11-05T08:38:44.100Z,108.00
2022-11-05T08:41:12.221Z,109.30
2022-11-05T08:43:40.255Z,109.23
2022-11-05T08:46:08.539Z,106.93
2022-11-05T08:48:36.603Z,103.70
2022-11-05T08:51:04.794Z,103.80
2022-11-05T08:53:34.193Z,107.47
2022-11-05T08:56:02.381Z,107.00
2022-11-05T08:58:30.895Z,101.97
2022-11-05T09:01:04.443Z,99.93
2022-11-05T09:03:33.148Z,96.70
2022-11-05T09:06:01.375Z,94.83
2022-11-05T09:08:29.305Z,98.50
2022-11-05T09:10:58.787Z,94.13
2022-11-05T09:13:27.383Z,94.13
2022-11-05T09:15:55.688Z,94.00
2022-11-05T09:18:23.790Z,91.07
2022-11-05T09:20:51.951Z,92.67
2022-11-05T09:23:20.229Z,91.60
2022-11-05T09:25:48.561Z,92.77
2022-11-05T09:28:20.213Z,93.43
2022-11-05T09:30:50.053Z,91.10
2022-11-05T09:33:20.593Z,88.87
2022-11-05T09:35:49.145Z,90.50
2022-11-05T09:38:17.703Z,90.33
2022-11-05T09:40:55.369Z,85.67
2022-11-05T09:43:31.768Z,82.53
2022-11-05T09:46:08.554Z,82.73
2022-11-05T09:48:38.200Z,84.93
2022-11-05T09:51:07.227Z,91.53
2022-11-05T09:53:40.060Z,82.93
2022-11-05T09:56:19.825Z,83.20
2022-11-05T09:58:54.209Z,81.10
2022-11-05T10:01:26.172Z,76.53
2022-11-05T10:03:57.888Z,72.93
2022-11-05T10:06:29.691Z,72.73
2022-11-05T10:09:03.933Z,71.80
2022-11-05T10:11:38.359Z,63.83
2022-11-05T10:14:17.011Z,52.67
2022-11-05T10:16:49.968Z,50.50
2022-11-05T10:19:24.800Z,43.10
2022-11-05T10:22:12.236Z,37.77
2022-11-05T10:24:43.829Z,31.90
2022-11-05T10:27:18.458Z,29.27
2022-11-05T10:29:49.554Z,32.27
2022-11-05T10:32:26.934Z,30.83
2022-11-05T10:34:58.714Z,31.67
2022-11-05T10:37:28.199Z,28.50
2022-11-05T10:39:56.933Z,26.30
2022-11-05T10:42:49.349Z,27.20
2022-11-05T10:45:29.440Z,26.43
2022-11-05T10:48:10.570Z,25.40
2022-11-05T10:50:39.838Z,25.67
2022-11-05T10:53:15.556Z,25.53
2022-11-05T10:55:46.227Z,25.00
2022-11-05T10:58:22.206Z,25.90
2022-11-05T11:01:05.941Z,25.60
2022-11-05T11:03:42.690Z,23.47
2022-11-05T11:06:21.668Z,22.80
2022-11-05T11:08:51.131Z,22.93
2022-11-05T11:11:32.743Z,23.27
2022-11-05T11:14:03.851Z,23.07
2022-11-05T11:16:38.197Z,22.80
2022-11-05T11:19:25.367Z,22.50
2022-11-05T11:22:15.131Z,21.90
2022-11-05T11:24:45.555Z,23.27
2022-11-05T11:27:16.650Z,23.37
2022-11-05T11:29:49.825Z,23.43
2022-11-05T11:32:21.522Z,23.90
2022-11-05T11:34:54.477Z,24.03
2022-11-05T11:37:28.902Z,23.77
2022-11-05T11:40:00.249Z,23.20
2022-11-05T11:42:32.385Z,22.33
2022-11-05T11:45:05.940Z,21.07
2022-11-05T11:47:36.408Z,20.60
2022-11-05T11:50:05.037Z,21.03
2022-11-05T11:52:35.548Z,21.23
2022-11-05T11:55:22.147Z,20.00
2022-11-05T11:57:52.325Z,19.93
2022-11-05T12:00:24.347Z,20.20
2022-11-05T12:03:13.974Z,18.97
2022-11-05T12:05:47.948Z,20.30
2022-11-05T12:08:40.509Z,19.60
2022-11-05T12:11:17.366Z,19.33
2022-11-05T12:14:04.887Z,19.00
2022-11-05T12:17:02.251Z,19.40
2022-11-05T12:19:50.811Z,18.50
2022-11-05T12:22:30.652Z,18.77
2022-11-05T12:25:26.036Z,18.60
2022-11-05T12:28:13.818Z,18.77
2022-11-05T12:30:52.467Z,17.57
2022-11-05T12:33:42.373Z,17.70
2022-11-05T12:36:30.552Z,17.80
2022-11-05T12:39:19.731Z,17.23
2022-11-05T12:41:56.511Z,17.20
2022-11-05T12:44:48.595Z,17.50
2022-11-05T12:47:29.279Z,17.43
2022-11-05T12:50:11.290Z,17.83
2022-11-05T12:53:12.943Z,18.53
2022-11-05T12:55:48.718Z,19.07
2022-11-05T12:58:36.196Z,19.80
2022-11-05T13:01:12.922Z,17.70
2022-11-05T13:03:45.027Z,18.20
2022-11-05T13:06:16.210Z,18.17
2022-11-05T13:08:50.795Z,18.03
2022-11-05T13:11:25.081Z,18.60
2022-11-05T13:14:02.778Z,19.57
2022-11-05T13:16:36.037Z,18.10
2022-11-05T13:19:08.525Z,19.23
2022-11-05T13:21:38.281Z,18.53
2022-11-05T13:24:12.325Z,18.00
2022-11-05T13:26:48.250Z,17.63
2022-11-05T13:29:22.294Z,18.20
2022-11-05T13:31:55.550Z,17.83
2022-11-05T13:34:24.414Z,17.80
2022-11-05T13:37:14.635Z,17.60
2022-11-05T13:39:50.386Z,17.50
2022-11-05T13:43:06.847Z,17.47
2022-11-05T13:46:16.458Z,17.93
2022-11-05T13:49:08.769Z,18.30
2022-11-05T13:51:50.091Z,18.00
2022-11-05T13:55:00.387Z,18.33
2022-11-05T13:58:12.027Z,18.60
2022-11-05T14:00:46.064Z,18.20
2022-11-05T14:03:20.315Z,17.90
2022-11-05T14:05:57.093Z,18.40
2022-11-05T14:08:29.685Z,18.00
2022-11-05T14:11:02.177Z,18.17
2022-11-05T14:13:36.277Z,18.80
2022-11-05T14:16:09.012Z,17.80
2022-11-05T14:18:45.677Z,17.70
2022-11-05T14:21:50.028Z,18.93
2022-11-05T14:24:43.338Z,17.57
2022-11-05T14:27:45.265Z,18.70
2022-11-05T14:30:45.522Z,17.77
2022-11-05T14:33:33.204Z,17.77
2022-11-05T14:36:34.462Z,17.40
2022-11-05T14:39:19.956Z,17.47
2022-11-05T14:42:00.565Z,17.37
2022-11-05T14:44:30.018Z,17.77
2022-11-05T14:47:01.374Z,19.73
2022-11-05T14:49:32.614Z,18.30
2022-11-05T14:52:06.909Z,18.70
2022-11-05T14:54:42.595Z,18.60
2022-11-05T14:57:14.477Z,18.47
2022-11-05T14:59:56.796Z,18.67
2022-11-05T15:02:27.900Z,18.30
2022-11-05T15:05:25.719Z,19.33
2022-11-05T15:07:58.086Z,18.80
2022-11-05T15:10:32.900Z,20.03
2022-11-05T15:13:05.290Z,18.40
2022-11-05T15:15:42.048Z,19.10
2022-11-05T15:18:18.650Z,18.73
2022-11-05T15:20:50.275Z,18.20
2022-11-05T15:23:21.734Z,18.80
2022-11-05T15:26:07.374Z,18.47
2022-11-05T15:28:38.831Z,19.30
2022-11-05T15:31:21.854Z,18.87
2022-11-05T15:33:50.044Z,18.93
2022-11-05T15:36:24.406Z,19.60
2022-11-05T15:39:22.975Z,18.70
2022-11-05T15:41:42.724Z,19.40
2022-11-05T15:44:25.390Z,18.17
2022-11-05T15:47:07.722Z,19.33
2022-11-05T15:49:36.069Z,19.07
2022-11-05T15:52:04.842Z,19.40
2022-11-05T15:54:33.388Z,19.60
2022-11-05T15:57:03.576Z,19.73
2022-11-05T15:59:32.007Z,19.40
2022-11-05T16:02:06.947Z,28.70
2022-11-05T16:04:36.308Z,20.92
2022-11-05T16:07:10.867Z,19.03
2022-11-05T16:09:41.351Z,19.80
2022-11-05T16:12:28.121Z,19.90
2022-11-05T16:15:01.892Z,20.30
2022-11-05T16:17:33.635Z,19.70
2022-11-05T16:20:02.027Z,19.13
2022-11-05T16:22:45.907Z,19.70
2022-11-05T16:25:39.523Z,20.83
2022-11-05T16:28:22.473Z,20.20
2022-11-05T16:30:55.919Z,20.47
2022-11-05T16:33:24.699Z,19.47
2022-11-05T16:35:52.838Z,19.77
2022-11-05T16:38:21.959Z,20.07
2022-11-05T16:40:50.112Z,20.70
2022-11-05T16:43:22.463Z,20.30
2022-11-05T16:45:50.897Z,20.90
2022-11-05T16:48:18.911Z,20.43
2022-11-05T16:50:47.614Z,20.30
2022-11-05T16:53:15.753Z,20.17
2022-11-05T16:55:45.906Z,21.00
2022-11-05T16:58:21.918Z,21.13
2022-11-05T17:00:51.393Z,22.10
2022-11-05T17:03:19.522Z,21.57
2022-11-05T17:05:48.282Z,22.20
2022-11-05T17:08:16.219Z,21.90
2022-11-05T17:10:44.389Z,22.53
2022-11-05T17:13:15.399Z,20.80
2022-11-05T17:15:46.013Z,21.80
2022-11-05T17:18:18.650Z,21.27
2022-11-05T17:20:49.070Z,21.45
2022-11-05T17:23:18.970Z,21.23
2022-11-05T17:25:48.901Z,22.00
2022-11-05T17:28:17.903Z,20.43
2022-11-05T17:30:52.325Z,20.70
2022-11-05T17:33:21.607Z,21.57
2022-11-05T17:35:49.856Z,21.83
2022-11-05T17:38:18.080Z,24.83
2022-11-05T17:40:46.243Z,21.70
2022-11-05T17:43:15.561Z,21.63
2022-11-05T17:45:46.451Z,21.50
2022-11-05T17:48:16.877Z,21.50
2022-11-05T17:50:46.436Z,21.80
2022-11-05T17:53:15.539Z,21.40
2022-11-05T17:55:45.442Z,22.60
2022-11-05T17:58:14.774Z,21.67
2022-11-05T18:00:44.846Z,22.53
2022-11-05T18:03:15.971Z,23.13
2022-11-05T18:05:45.134Z,21.80
2022-11-05T18:08:13.785Z,21.57
2022-11-05T18:10:42.473Z,21.90
2022-11-05T18:13:11.372Z,22.80
2022-11-05T18:15:42.066Z,21.73
2022-11-05T18:18:10.403Z,20.70
2022-11-05T18:20:40.313Z,21.47
2022-11-05T18:23:08.595Z,20.80
2022-11-05T18:25:37.019Z,21.23
2022-11-05T18:28:05.279Z,20.93
2022-11-05T18:30:33.869Z,21.30
2022-11-05T18:33:02.207Z,20.47
2022-11-05T18:35:30.335Z,21.43
2022-11-05T18:37:59.819Z,21.60
2022-11-05T18:40:28.538Z,21.37
2022-11-05T18:42:57.052Z,21.20
2022-11-05T18:45:29.518Z,21.30
2022-11-05T18:47:58.199Z,22.30
2022-11-05T18:50:26.401Z,21.37
2022-11-05T18:52:54.662Z,21.20
2022-11-05T18:55:24.460Z,21.57
2022-11-05T18:57:52.652Z,21.43
2022-11-05T19:00:21.375Z,21.60
2022-11-05T19:02:50.316Z,21.53
2022-11-05T19:05:34.481Z,23.33
2022-11-05T19:08:02.600Z,22.80
2022-11-05T19:10:32.295Z,22.07
2022-11-05T19:13:00.534Z,21.10
2022-11-05T19:15:28.873Z,21.90
2022-11-05T19:17:57.183Z,21.60
2022-11-05T19:20:25.687Z,20.70
2022-11-05T19:22:53.896Z,21.00
2022-11-05T19:25:22.166Z,20.43
2022-11-05T19:27:51.897Z,21.20
2022-11-05T19:30:20.350Z,22.10
2022-11-05T19:32:48.799Z,21.93
2022-11-05T19:35:17.426Z,21.63
2022-11-05T19:37:45.714Z,23.27
2022-11-05T19:40:14.273Z,22.20
2022-11-05T19:42:42.698Z,22.40
2022-11-05T19:48:01.615Z,22.50
2022-11-05T19:50:29.866Z,24.50
2022-11-05T19:52:58.261Z,22.67
2022-11-05T19:55:26.923Z,22.43
2022-11-05T19:57:55.128Z,22.10
2022-11-05T20:00:24.961Z,22.63
2022-11-05T20:02:53.571Z,23.00
2022-11-05T20:05:22.045Z,23.80
2022-11-05T20:07:53.077Z,23.20
2022-11-05T20:10:21.598Z,23.70
2022-11-05T20:12:49.948Z,22.97
2022-11-05T20:15:19.710Z,23.10
2022-11-05T20:17:53.494Z,24.57
2022-11-05T20:20:21.946Z,24.10
2022-11-05T20:22:52.214Z,23.03
2022-11-05T20:25:20.790Z,22.80
2022-11-05T20:27:49.285Z,25.20
2022-11-05T20:30:18.697Z,24.17
2022-11-05T20:32:46.999Z,23.97
2022-11-05T20:35:17.042Z,23.27
2022-11-05T20:37:48.424Z,25.43
2022-11-05T20:40:19.368Z,24.57
2022-11-05T20:42:47.456Z,25.30
2022-11-05T20:45:15.461Z,24.47
2022-11-05T20:47:43.636Z,24.90
2022-11-05T20:50:11.715Z,26.00
2022-11-05T20:52:41.458Z,24.67
2022-11-05T20:55:10.782Z,24.13
2022-11-05T20:57:39.610Z,24.10
2022-11-05T21:00:09.148Z,25.30
2022-11-05T21:02:39.506Z,25.90
2022-11-05T21:05:08.654Z,25.30
2022-11-05T21:07:36.768Z,27.10
2022-11-05T21:10:07.490Z,27.13
2022-11-05T21:12:35.554Z,26.97
2022-11-05T21:15:03.653Z,26.73
2022-11-05T21:17:31.651Z,26.43
2022-11-05T21:19:59.780Z,27.03
2022-11-05T21:22:27.914Z,27.27
2022-11-05T21:24:56.752Z,26.20
2022-11-05T21:27:26.220Z,26.47
2022-11-05T21:29:54.325Z,26.37
2022-11-05T21:32:22.370Z,28.07
2022-11-05T21:34:50.460Z,28.20
2022-11-05T21:37:18.531Z,28.10
2022-11-05T21:39:46.621Z,28.77
2022-11-05T21:42:14.656Z,27.27
2022-11-05T21:44:44.136Z,28.97
2022-11-05T21:47:12.738Z,29.70
2022-11-05T21:49:40.824Z,29.60
2022-11-05T21:52:28.605Z,30.10
2022-11-05T21:55:14.238Z,29.73
2022-11-05T21:58:00.367Z,28.73
2022-11-05T22:00:30.280Z,29.50
2022-11-05T22:02:59.958Z,29.47
2022-11-05T22:05:29.334Z,29.47
2022-11-05T22:07:57.419Z,28.97
2022-11-05T22:10:25.701Z,30.70
2022-11-05T22:12:53.796Z,29.63
2022-11-05T22:15:21.852Z,31.17
2022-11-05T22:17:52.348Z,29.27
2022-11-05T22:20:20.580Z,30.67
2022-11-05T22:22:48.637Z,30.80
2022-11-05T22:25:16.767Z,31.03
2022-11-05T22:27:44.983Z,29.93
2022-11-05T22:30:14.507Z,30.40
2022-11-05T22:32:42.634Z,30.20
2022-11-05T22:35:12.271Z,30.00
2022-11-05T22:37:40.354Z,30.80
2022-11-05T22:40:09.656Z,29.53
2022-11-05T22:42:37.963Z,30.67
2022-11-05T22:45:07.226Z,31.47
2022-11-05T22:47:35.590Z,33.00
2022-11-05T22:50:04.025Z,31.47
2022-11-05T22:52:33.698Z,31.77
2022-11-05T22:55:02.685Z,32.03
2022-11-05T22:57:30.769Z,32.67
2022-11-05T22:59:58.819Z,32.80
2022-11-05T23:02:26.982Z,33.17
2022-11-05T23:04:55.205Z,33.10
2022-11-05T23:07:40.723Z,33.00
2022-11-05T23:10:28.176Z,33.17
2022-11-05T23:12:56.562Z,34.07
2022-11-05T23:15:41.913Z,34.33
2022-11-05T23:18:28.357Z,33.30
2022-11-05T23:21:14.720Z,33.50
2022-11-05T23:24:01.812Z,33.37
2022-11-05T23:26:51.128Z,32.17
2022-11-05T23:29:20.244Z,31.53
2022-11-05T23:32:05.722Z,32.47
2022-11-05T23:34:33.753Z,32.77
2022-11-05T23:37:19.482Z,34.07
2022-11-05T23:39:47.549Z,33.93
2022-11-05T23:42:34.411Z,35.60
2022-11-05T23:45:19.905Z,35.27
2022-11-05T23:48:05.550Z,36.87
2022-11-05T23:50:38.546Z,37.37
2022-11-05T23:53:08.631Z,38.53
2022-11-05T23:55:37.038Z,37.90
2022-11-05T23:58:06.464Z,39.53
